createdAt,value
2022-11-16T00:01:41.023Z,7.3
2022-11-16T00:04:40.990Z,7.3
2022-11-16T00:07:40.972Z,7.2
2022-11-16T00:10:40.971Z,7.2
2022-11-16T00:13:40.970Z,7.2
2022-11-16T00:16:40.972Z,7.2
2022-11-16T00:19:40.976Z,7.1
2022-11-16T00:22:41.005Z,7.1
2022-11-16T00:25:40.981Z,7.1
2022-11-16T00:28:40.982Z,7.1
2022-11-16T00:31:40.987Z,7.1
2022-11-16T00:34:40.988Z,7
2022-11-16T00:37:40.988Z,7
2022-11-16T00:40:41.020Z,7
2022-11-16T00:43:40.993Z,7
2022-11-16T00:46:41.020Z,7
2022-11-16T00:49:41.016Z,6.9
2022-11-16T00:52:41.002Z,6.9
2022-11-16T00:55:41.003Z,6.9
2022-11-16T00:58:41.033Z,6.9
2022-11-16T01:01:41.089Z,6.9
2022-11-16T01:04:41.000Z,6.8
2022-11-16T01:07:41.010Z,6.8
2022-11-16T01:10:41.017Z,6.8
2022-11-16T01:13:41.012Z,6.8
2022-11-16T01:16:41.038Z,6.8
2022-11-16T01:19:41.018Z,6.8
2022-11-16T01:22:41.023Z,6.7
2022-11-16T01:25:41.021Z,6.7
2022-11-16T01:28:41.029Z,6.7
2022-11-16T01:31:41.032Z,6.7
2022-11-16T01:34:41.056Z,6.7
2022-11-16T01:37:41.032Z,6.6
2022-11-16T01:40:41.084Z,6.6
2022-11-16T01:43:41.042Z,6.6
2022-11-16T01:46:41.045Z,6.6
2022-11-16T01:49:41.045Z,6.6
2022-11-16T01:52:41.073Z,6.7
2022-11-16T01:55:41.050Z,6.6
2022-11-16T01:58:41.053Z,6.6
2022-11-16T02:01:41.155Z,6.6
2022-11-16T02:04:41.056Z,6.6
2022-11-16T02:07:41.058Z,6.6
2022-11-16T02:10:41.091Z,6.6
2022-11-16T02:13:41.073Z,6.6
2022-11-16T02:16:41.073Z,6.5
2022-11-16T02:19:41.074Z,6.5
2022-11-16T02:22:41.076Z,6.5
2022-11-16T02:25:41.074Z,6.5
2022-11-16T02:28:41.114Z,6.5
2022-11-16T02:31:41.087Z,6.4
2022-11-16T02:34:41.090Z,6.4
2022-11-16T02:37:41.089Z,6.4
2022-11-16T02:40:41.091Z,6.3
2022-11-16T02:43:41.097Z,6.3
2022-11-16T02:46:41.130Z,6.3
2022-11-16T02:49:41.108Z,6.3
2022-11-16T02:52:41.112Z,6.2
2022-11-16T02:55:41.110Z,6.2
2022-11-16T02:58:41.116Z,6.2
2022-11-16T03:01:41.119Z,6.2
2022-11-16T03:04:41.143Z,6.1
2022-11-16T03:07:41.122Z,6.1
2022-11-16T03:10:41.128Z,6.1
2022-11-16T03:13:41.139Z,6
2022-11-16T03:16:41.135Z,6
2022-11-16T03:19:41.146Z,6
2022-11-16T03:22:41.166Z,6
2022-11-16T03:25:41.145Z,6
2022-11-16T03:28:41.143Z,6
2022-11-16T03:31:41.149Z,6
2022-11-16T03:34:41.150Z,5.9
2022-11-16T03:37:41.153Z,6
2022-11-16T03:40:41.187Z,5.9
2022-11-16T03:43:41.166Z,5.9
2022-11-16T03:46:41.168Z,5.9
2022-11-16T03:49:41.177Z,5.9
2022-11-16T03:52:41.180Z,5.9
2022-11-16T03:55:43.457Z,5.9
2022-11-16T03:58:41.204Z,5.8
2022-11-16T04:01:44.647Z,5.8
2022-11-16T04:04:41.190Z,5.9
2022-11-16T04:07:41.189Z,5.8
2022-11-16T04:10:41.201Z,5.8
2022-11-16T04:13:41.200Z,5.8
2022-11-16T04:16:41.230Z,5.8
2022-11-16T04:19:41.205Z,5.8
2022-11-16T04:22:41.209Z,5.8
2022-11-16T04:25:41.212Z,5.8
2022-11-16T04:28:41.207Z,5.8
2022-11-16T04:31:41.214Z,5.8
2022-11-16T04:34:41.237Z,5.8
2022-11-16T04:37:41.220Z,5.8
2022-11-16T04:40:41.221Z,5.8
2022-11-16T04:43:41.222Z,5.8
2022-11-16T04:46:41.221Z,5.8
2022-11-16T04:49:41.223Z,5.8
2022-11-16T04:52:41.259Z,5.8
2022-11-16T04:55:41.239Z,5.8
2022-11-16T04:58:41.245Z,5.8
2022-11-16T05:01:41.305Z,5.8
2022-11-16T05:04:41.251Z,5.8
2022-11-16T05:07:41.253Z,5.8
2022-11-16T05:10:41.283Z,5.7
2022-11-16T05:13:41.261Z,5.7
2022-11-16T05:16:41.273Z,5.7
2022-11-16T05:19:41.267Z,5.7
2022-11-16T05:22:41.273Z,5.6
2022-11-16T05:25:41.270Z,5.6
2022-11-16T05:28:41.306Z,5.6
2022-11-16T05:31:41.282Z,5.6
2022-11-16T05:34:41.281Z,5.6
2022-11-16T05:37:41.291Z,5.5
2022-11-16T05:40:41.292Z,5.5
2022-11-16T05:43:41.304Z,5.5
2022-11-16T05:46:41.334Z,5.5
2022-11-16T05:49:41.309Z,5.5
2022-11-16T05:52:41.309Z,5.4
2022-11-16T05:55:41.318Z,5.4
2022-11-16T05:58:41.328Z,5.4
2022-11-16T06:01:41.332Z,5.3
2022-11-16T06:04:41.406Z,5.3
2022-11-16T06:07:41.339Z,5.3
2022-11-16T06:10:41.345Z,5.3
2022-11-16T06:13:41.346Z,5.3
2022-11-16T06:16:42.147Z,5.3
2022-11-16T06:19:41.356Z,5.3
2022-11-16T06:22:41.358Z,5.3
2022-11-16T06:25:41.362Z,5.3
2022-11-16T06:28:41.366Z,5.2
2022-11-16T06:31:41.369Z,5.2
2022-11-16T06:34:41.400Z,5.2
2022-11-16T06:37:41.387Z,5.2
2022-11-16T06:40:41.386Z,5.2
2022-11-16T06:43:41.386Z,5.2
2022-11-16T06:46:41.392Z,5.2
2022-11-16T06:49:41.399Z,5.2
2022-11-16T06:52:41.521Z,5.2
2022-11-16T06:55:41.412Z,5.2
2022-11-16T06:58:42.863Z,5.2
2022-11-16T07:01:41.460Z,5.2
2022-11-16T07:04:41.434Z,5.2
2022-11-16T07:07:41.439Z,5.2
2022-11-16T07:10:41.564Z,5.2
2022-11-16T07:13:41.455Z,5.2
2022-11-16T07:16:41.458Z,5.2
2022-11-16T07:19:41.469Z,5.2
2022-11-16T07:22:41.467Z,5.3
2022-11-16T07:25:41.473Z,5.3
2022-11-16T07:28:46.684Z,5.3
2022-11-16T07:31:41.481Z,5.3
2022-11-16T07:34:41.489Z,5.3
2022-11-16T07:37:41.500Z,5.3
2022-11-16T07:40:41.506Z,5.3
2022-11-16T07:43:41.503Z,5.3
2022-11-16T07:46:46.863Z,5.4
2022-11-16T07:49:41.515Z,5.4
2022-11-16T07:52:41.522Z,5.4
2022-11-16T07:55:41.524Z,5.4
2022-11-16T07:58:41.532Z,5.4
2022-11-16T08:01:41.593Z,5.4
2022-11-16T08:04:41.667Z,5.4
2022-11-16T08:07:41.551Z,5.4
2022-11-16T08:10:41.559Z,5.4
2022-11-16T08:13:41.562Z,5.4
2022-11-16T08:16:41.575Z,5.4
2022-11-16T08:19:41.576Z,5.4
2022-11-16T08:22:41.705Z,5.4
2022-11-16T08:25:41.590Z,5.4
2022-11-16T08:28:41.602Z,5.4
2022-11-16T08:31:41.608Z,5.4
2022-11-16T08:34:41.617Z,5.4
2022-11-16T08:37:41.630Z,5.4
2022-11-16T08:40:41.755Z,5.4
2022-11-16T08:43:41.635Z,5.4
2022-11-16T08:46:41.652Z,5.4
2022-11-16T08:49:45.211Z,5.5
2022-11-16T08:52:41.658Z,5.4
2022-11-16T08:55:41.669Z,5.4
2022-11-16T08:58:41.701Z,5.4
2022-11-16T09:01:41.731Z,5.4
2022-11-16T09:04:41.683Z,5.4
2022-11-16T09:07:41.691Z,5.4
2022-11-16T09:10:41.698Z,5.5
2022-11-16T09:13:41.702Z,5.5
2022-11-16T09:16:41.721Z,5.5
2022-11-16T09:19:41.715Z,5.5
2022-11-16T09:22:41.716Z,5.5
2022-11-16T09:25:41.719Z,5.5
2022-11-16T09:28:41.725Z,5.5
2022-11-16T09:31:41.728Z,5.5
2022-11-16T09:34:41.855Z,5.5
2022-11-16T09:37:41.736Z,5.6
2022-11-16T09:40:41.740Z,5.6
2022-11-16T09:43:45.692Z,5.6
2022-11-16T09:46:41.745Z,5.6
2022-11-16T09:49:41.754Z,5.6
2022-11-16T09:52:41.787Z,5.6
2022-11-16T09:55:41.765Z,5.6
2022-11-16T09:58:41.775Z,5.6
2022-11-16T10:01:41.792Z,5.6
2022-11-16T10:04:41.783Z,5.6
2022-11-16T10:07:41.794Z,5.6
2022-11-16T10:10:41.918Z,5.7
2022-11-16T10:13:41.800Z,5.7
2022-11-16T10:16:41.806Z,5.7
2022-11-16T10:19:41.815Z,5.7
2022-11-16T10:22:41.823Z,5.7
2022-11-16T10:25:41.824Z,5.7
2022-11-16T10:28:41.963Z,5.7
2022-11-16T10:31:41.838Z,5.7
2022-11-16T10:34:41.844Z,5.8
2022-11-16T10:37:41.850Z,5.8
2022-11-16T10:40:41.855Z,5.8
2022-11-16T10:43:41.861Z,5.8
2022-11-16T10:46:41.985Z,5.8
2022-11-16T10:49:41.872Z,5.8
2022-11-16T10:52:41.876Z,5.8
2022-11-16T10:55:41.886Z,5.9
2022-11-16T10:58:41.883Z,5.9
2022-11-16T11:01:41.889Z,5.9
2022-11-16T11:04:42.010Z,6
2022-11-16T11:07:41.913Z,6
2022-11-16T11:10:41.915Z,6
2022-11-16T11:13:41.913Z,6
2022-11-16T11:16:41.920Z,6
2022-11-16T11:19:41.932Z,6
2022-11-16T11:22:41.969Z,6
2022-11-16T11:25:41.945Z,6
2022-11-16T11:28:41.948Z,6
2022-11-16T11:31:41.953Z,5.9
2022-11-16T11:34:41.971Z,5.9
2022-11-16T11:37:41.965Z,5.9
2022-11-16T11:40:42.095Z,5.9
2022-11-16T11:43:41.979Z,5.9
2022-11-16T11:47:18.575Z,5.9
2022-11-16T11:49:41.989Z,5.9
2022-11-16T11:52:41.997Z,5.9
2022-11-16T11:55:42.005Z,5.8
2022-11-16T11:58:42.136Z,5.9
2022-11-16T12:01:42.017Z,5.9
2022-11-16T12:04:42.027Z,5.8
2022-11-16T12:07:42.031Z,5.9
2022-11-16T12:10:42.029Z,5.9
2022-11-16T12:13:42.046Z,5.9
2022-11-16T12:16:42.174Z,5.9
2022-11-16T12:19:42.063Z,5.9
2022-11-16T12:22:42.074Z,5.9
2022-11-16T12:25:42.081Z,5.9
2022-11-16T12:28:42.150Z,5.9
2022-11-16T12:31:42.093Z,5.9
2022-11-16T12:34:42.145Z,6
2022-11-16T12:37:42.110Z,5.9
2022-11-16T12:40:42.116Z,5.9
2022-11-16T12:43:42.121Z,5.9
2022-11-16T12:46:42.128Z,5.9
2022-11-16T12:49:42.141Z,5.9
2022-11-16T12:52:42.411Z,5.9
2022-11-16T12:55:42.152Z,5.9
2022-11-16T12:58:42.157Z,5.9
2022-11-16T13:01:42.163Z,5.9
2022-11-16T13:04:42.172Z,5.9
2022-11-16T13:07:42.224Z,5.9
2022-11-16T13:10:42.271Z,6
2022-11-16T13:13:42.188Z,5.9
2022-11-16T13:16:42.195Z,6
2022-11-16T13:19:42.200Z,6
2022-11-16T13:22:42.209Z,5.9
2022-11-16T13:25:42.216Z,6
2022-11-16T13:28:42.252Z,6
2022-11-16T13:31:42.225Z,6
2022-11-16T13:34:42.235Z,6
2022-11-16T13:37:42.240Z,6
2022-11-16T13:40:42.245Z,6
2022-11-16T13:43:42.258Z,6
2022-11-16T13:46:55.635Z,6
2022-11-16T13:49:42.267Z,6
2022-11-16T13:53:19.858Z,6
2022-11-16T13:55:42.279Z,6
2022-11-16T13:58:42.282Z,6
2022-11-16T14:01:42.300Z,6
2022-11-16T14:04:42.422Z,5.9
2022-11-16T14:07:42.303Z,5.9
2022-11-16T14:10:42.310Z,5.9
2022-11-16T14:13:42.337Z,5.9
2022-11-16T14:16:42.319Z,5.9
2022-11-16T14:19:42.328Z,5.9
2022-11-16T14:22:42.356Z,5.9
2022-11-16T14:25:42.340Z,5.9
2022-11-16T14:28:42.350Z,5.9
2022-11-16T14:31:42.360Z,6
2022-11-16T14:34:42.359Z,6
2022-11-16T14:37:42.369Z,6
2022-11-16T14:40:42.496Z,6
2022-11-16T14:43:42.382Z,6
2022-11-16T14:46:42.390Z,6
2022-11-16T14:49:42.394Z,6
2022-11-16T14:52:42.406Z,6
2022-11-16T14:55:42.412Z,6
2022-11-16T14:58:42.535Z,6
2022-11-16T15:01:42.428Z,6
2022-11-16T15:04:42.433Z,6
2022-11-16T15:07:42.465Z,6
2022-11-16T15:10:42.443Z,6
2022-11-16T15:13:42.453Z,6
2022-11-16T15:16:42.579Z,6
2022-11-16T15:19:42.472Z,6
2022-11-16T15:22:42.477Z,6
2022-11-16T15:25:42.490Z,6
2022-11-16T15:28:45.819Z,6
2022-11-16T15:31:42.505Z,6
2022-11-16T15:34:42.646Z,6
2022-11-16T15:37:42.517Z,6.1
2022-11-16T15:40:42.531Z,6.1
2022-11-16T15:43:55.424Z,6.1
2022-11-16T15:46:42.543Z,6.1
2022-11-16T15:49:42.551Z,6.1
2022-11-16T15:52:42.725Z,6.1
2022-11-16T15:55:42.608Z,6.1
2022-11-16T15:58:42.576Z,6.1
2022-11-16T16:01:42.693Z,6.1
2022-11-16T16:04:42.588Z,6.1
2022-11-16T16:07:42.596Z,6.1
2022-11-16T16:10:42.754Z,6.1
2022-11-16T16:13:42.612Z,6.1
2022-11-16T16:16:42.615Z,6.1
2022-11-16T16:19:42.619Z,6.1
2022-11-16T16:22:42.630Z,6.1
2022-11-16T16:25:46.126Z,6.1
2022-11-16T16:28:42.764Z,6.1
2022-11-16T16:31:42.648Z,6.1
2022-11-16T16:34:42.664Z,6.1
2022-11-16T16:37:42.665Z,6.1
2022-11-16T16:40:42.674Z,6
2022-11-16T16:43:42.687Z,6
2022-11-16T16:46:42.830Z,6
2022-11-16T16:49:42.697Z,6
2022-11-16T16:52:42.701Z,6
2022-11-16T16:55:42.708Z,5.9
2022-11-16T16:58:42.718Z,5.9
2022-11-16T17:01:42.798Z,5.9
2022-11-16T17:04:42.848Z,5.8
2022-11-16T17:07:42.733Z,5.8
2022-11-16T17:10:42.746Z,5.7
2022-11-16T17:13:42.755Z,5.7
2022-11-16T17:16:42.755Z,5.7
2022-11-16T17:19:42.774Z,5.6
2022-11-16T17:22:42.882Z,5.6
2022-11-16T17:25:42.772Z,5.5
2022-11-16T17:28:42.782Z,5.5
2022-11-16T17:31:42.793Z,5.5
2022-11-16T17:34:42.796Z,5.5
2022-11-16T17:37:42.796Z,5.5
2022-11-16T17:40:42.925Z,5.5
2022-11-16T17:43:42.815Z,5.5
2022-11-16T17:46:42.813Z,5.5
2022-11-16T17:49:42.822Z,5.4
2022-11-16T17:52:42.832Z,5.4
2022-11-16T17:55:42.833Z,5.4
2022-11-16T17:58:42.869Z,5.4
2022-11-16T18:01:42.919Z,5.3
2022-11-16T18:04:45.660Z,5.4
2022-11-16T18:07:42.865Z,5.3
2022-11-16T18:10:42.871Z,5.3
2022-11-16T18:13:42.879Z,5.3
2022-11-16T18:16:42.902Z,5.3
2022-11-16T18:19:42.887Z,5.3
2022-11-16T18:22:42.888Z,5.3
2022-11-16T18:25:42.894Z,5.3
2022-11-16T18:28:42.903Z,5.3
2022-11-16T18:31:42.908Z,5.3
2022-11-16T18:34:42.932Z,5.3
2022-11-16T18:37:43.017Z,5.3
2022-11-16T18:40:42.920Z,5.3
2022-11-16T18:43:42.929Z,5.3
2022-11-16T18:46:42.936Z,5.3
2022-11-16T18:49:42.936Z,5.3
2022-11-16T18:52:43.064Z,5.3
2022-11-16T18:55:42.952Z,5.3
2022-11-16T18:58:50.155Z,5.2
2022-11-16T19:01:42.959Z,5.2
2022-11-16T19:04:42.963Z,5.2
2022-11-16T19:07:42.973Z,5.2
2022-11-16T19:10:43.086Z,5.2
2022-11-16T19:13:42.977Z,5.2
2022-11-16T19:16:49.066Z,5.2
2022-11-16T19:19:42.979Z,5.2
2022-11-16T19:22:42.984Z,5.2
2022-11-16T19:25:42.977Z,5.1
2022-11-16T19:28:43.105Z,5.1
2022-11-16T19:31:42.988Z,5.2
2022-11-16T19:34:42.984Z,5.1
2022-11-16T19:37:42.991Z,5.1
2022-11-16T19:40:42.990Z,5.1
2022-11-16T19:43:42.989Z,5.1
2022-11-16T19:46:43.017Z,5.1
2022-11-16T19:49:43.004Z,5.1
2022-11-16T19:52:43.031Z,5.1
2022-11-16T19:55:43.028Z,5.1
2022-11-16T19:58:43.047Z,5.1
2022-11-16T20:01:43.060Z,5.1
2022-11-16T20:04:43.175Z,5.1
2022-11-16T20:07:43.096Z,5.1
2022-11-16T20:10:43.111Z,5.1
2022-11-16T20:13:43.129Z,5.1
2022-11-16T20:16:43.144Z,5.1
2022-11-16T20:19:43.159Z,5.1
2022-11-16T20:22:43.300Z,5.1
2022-11-16T20:25:43.190Z,5.1
2022-11-16T20:28:43.205Z,5.1
2022-11-16T20:31:43.216Z,5.1
2022-11-16T20:34:43.235Z,5.1
2022-11-16T20:37:43.249Z,5.1
2022-11-16T20:40:43.377Z,5.1
2022-11-16T20:43:43.276Z,5
2022-11-16T20:46:43.293Z,5
2022-11-16T20:49:43.308Z,5
2022-11-16T20:52:46.128Z,5
2022-11-16T20:55:43.346Z,5
2022-11-16T20:58:43.470Z,5
2022-11-16T21:01:43.409Z,5
2022-11-16T21:04:43.391Z,5
2022-11-16T21:07:43.410Z,4.9
2022-11-16T21:10:43.428Z,5
2022-11-16T21:13:43.440Z,5
2022-11-16T21:16:43.588Z,5
2022-11-16T21:19:54.399Z,4.9
2022-11-16T21:22:43.496Z,4.9
2022-11-16T21:25:43.515Z,4.9
2022-11-16T21:28:43.529Z,4.9
2022-11-16T21:31:43.556Z,4.9
2022-11-16T21:34:43.580Z,4.9
2022-11-16T21:37:43.575Z,4.8
2022-11-16T21:40:43.592Z,4.8
2022-11-16T21:43:43.608Z,4.8
2022-11-16T21:46:43.624Z,4.8
2022-11-16T21:50:08.541Z,4.8
2022-11-16T21:52:43.777Z,4.8
2022-11-16T21:55:43.677Z,4.7
2022-11-16T21:58:43.701Z,4.7
2022-11-16T22:01:43.749Z,4.7
2022-11-16T22:04:43.726Z,4.7
2022-11-16T22:07:43.743Z,4.6
2022-11-16T22:10:43.879Z,4.6
2022-11-16T22:13:43.785Z,4.6
2022-11-16T22:16:43.804Z,4.6
2022-11-16T22:19:43.822Z,4.6
2022-11-16T22:22:43.839Z,4.6
2022-11-16T22:25:43.857Z,4.5
2022-11-16T22:28:43.904Z,4.5
2022-11-16T22:31:43.899Z,4.5
2022-11-16T22:34:43.920Z,4.5
2022-11-16T22:37:43.984Z,4.5
2022-11-16T22:40:43.965Z,4.5
2022-11-16T22:43:43.977Z,4.4
2022-11-16T22:46:44.117Z,4.5
2022-11-16T22:49:44.017Z,4.4
2022-11-16T22:52:44.035Z,4.4
2022-11-16T22:55:44.053Z,4.4
2022-11-16T22:58:44.077Z,4.4
2022-11-16T23:01:44.091Z,4.4
2022-11-16T23:04:44.135Z,4.3
2022-11-16T23:07:44.133Z,4.3
2022-11-16T23:10:49.061Z,4.3
2022-11-16T23:13:44.169Z,4.3
2022-11-16T23:16:44.218Z,4.3
2022-11-16T23:19:44.215Z,4.3
2022-11-16T23:22:44.353Z,4.3
2022-11-16T23:25:44.248Z,4.3
2022-11-16T23:28:44.243Z,4.4
2022-11-16T23:31:44.242Z,4.3
2022-11-16T23:34:44.241Z,4.3
2022-11-16T23:37:44.270Z,4.3
2022-11-16T23:40:44.299Z,4.4
2022-11-16T23:43:44.268Z,4.4
2022-11-16T23:46:44.271Z,4.4
2022-11-16T23:49:44.277Z,4.4
2022-11-16T23:52:44.273Z,4.4
2022-11-16T23:55:44.279Z,4.5
2022-11-16T23:58:44.404Z,4.5
